الصفحة الرئيسية
METAR-TAF:

METAR-TAF

مطار :

جويا ديل كولي, إيطاليا

دائرة عرض: 40-46N, خط طول: 016-56E, ارتفاع: 345 متر

مراقبة الطقس الحالي

تاريخ ووقت الإصدار 1ساعة و 8 دقيقة قبل الساعة 19:55UTC
ريح 3 عقدة من الشمال
درجة الحرارة 14°درجة مئوية
الرطوبة 67%
ضغط 1017 hPa
الرؤية 10 كم أو أكثر
غيوم قليلة على ارتفاع 3500 قدم

METAR: LIBV 291955Z 36003KT 9999 FEW035 14/08 Q1017 RMK BKN BKN250 VIS MIN 9999 WIND THR32 03003KT WIND THR14 35003KT BLU

زمن: 23:03 (21:03 UTC)

توقعات

تاريخ ووقت الإصدار 1ساعة و 3 دقيقة قبل الساعة 20:00UTC
التوقعات صالحة من29 الساعة 21 UTC إلى 30 الساعة 06 UTC
ريح 4 عقدة من الشمال
الرؤية 10 كم أو أكثر
غيوم قليلة على ارتفاع 3500 قدم
أصبح
من 29 الساعة 22 UTC إلى 29 الساعة 24 UTC
غيوم متفرقة على ارتفاع 2000 قدم
مؤقت
من 30 الساعة 04 UTC إلى 30 الساعة 06 UTC
الرؤية: 8000 متر
غيوم مفككة على ارتفاع 2000 قدم
مطر

TAF: LIBV 292000Z 2921/3006 01004KT 9999 FEW035 BECMG 2922/2924 SCT020 TEMPO 3004/3006 8000 RA BKN020

أرصاد الطقس والتوقعات من أكثر من 4000 مطار (تقارير الطقس للمطار METAR والتنبؤ بالطقس بالمطارTAF).

المحطات المتاحة هي النقط الصفراء والحمراء على الخريطة.

حرك المؤشر فوق النقطة لمعرفة اسم المحطة.

ثم انقر لمعرفة أرصاد وتوقعات الطقس.

لتغيير الخارطة: اضغط على الأزرار الخضراء مع رمز الصليب الأسود للتكبير. على الزر الأخضر مع شرطة للتصغير، أو على الأسهم الخضراء للخرائط المجاورة.


METAR-TAF: